Quenames — WTU9038 — position and weather

sailwx.info

Track history (hours):
 
Tides and Currents Weather Stations Pressure Air Temp Water Temp Dewpoint Dewpoint Depression Visibility Wind Speed Wind Dir Waves Ship Positions

Quenames

Owner: BOSTON MARINE TRANSPORT INC, EAST BOSTON, MA. More information available from US FCC via Universal Licensing System and Coast Guard Vessel Documentation Center.

Last reported at 2014-Nov-27 04:16 UTC. Time now 2014-Nov-27 05:39 UTC.
Position N 40°32' W 074°15'.

Length 23 m.

Type: Tug. MMSI: 367022790.

Date/timePositionNaut miles runAvg speedWind from/ knotsBaromVisibWave heightAir tempDewpointWater temp
2014-Nov-27 04:16N 40°32' W 074°15'0 0.0
2014-Nov-27 03:33N 40°32' W 074°15'1 0.8
2014-Nov-27 02:26N 40°33' W 074°15'5 0.5
2014-Nov-26 16:14N 40°37' W 074°12'1 2.1
2014-Nov-26 15:33N 40°38' W 074°12'0 0.0
2014-Nov-26 14:33N 40°38' W 074°12'0 0.0
2014-Nov-26 13:34N 40°38' W 074°12'0 0.0
2014-Nov-26 12:33N 40°38' W 074°12'0 0.2
2014-Nov-26 11:34N 40°38' W 074°12'2 1.7
2014-Nov-26 10:08N 40°36' W 074°12'2 3.9
2014-Nov-26 09:33N 40°38' W 074°12'0 0.1
2014-Nov-26 06:33N 40°38' W 074°12'6 6.1
2014-Nov-26 05:34N 40°38' W 074°04'10 7.4
2014-Nov-26 04:09N 40°35' W 073°51'5 1.8
2014-Nov-26 01:16N 40°38' W 073°45'0 0.0
2014-Nov-26 00:22N 40°38' W 073°45'0 0.0
2014-Nov-25 23:26N 40°38' W 073°45'0 0.0
2014-Nov-25 22:32N 40°38' W 073°45'0 0.0
2014-Nov-25 21:33N 40°38' W 073°45'0 0.0
2014-Nov-25 20:33N 40°38' W 073°45'0 0.0
2014-Nov-25 19:32N 40°38' W 073°45'2 2.2
2014-Nov-25 18:30N 40°36' W 073°47'5 5.1
2014-Nov-25 17:32N 40°34' W 073°53'6 6.0
2014-Nov-25 16:33N 40°34' W 074°01'7 6.8
2014-Nov-25 15:33N 40°41' W 074°01'5 4.9
2014-Nov-25 14:33N 40°45' W 073°58'4 3.6
2014-Nov-25 13:31N 40°48' W 073°54'6 5.3
2014-Nov-25 12:29N 40°49' W 073°47'6 4.8
2014-Nov-25 11:16N 40°51' W 073°40'0 0.0
2014-Nov-25 04:16N 40°51' W 073°40'3 4.3
2014-Nov-25 03:33N 40°53' W 073°43'9 7.0
2014-Nov-25 02:20N 40°48' W 073°52'6 7.7
2014-Nov-25 01:33N 40°44' W 073°58'3 3.2
2014-Nov-25 00:33N 40°47' W 073°60'9 8.5
2014-Nov-24 23:31N 40°55' W 073°55'8 0.2
2014-Nov-23 01:15N 40°47' W 073°59'6 9.3
2014-Nov-23 00:33N 40°41' W 074°02'7 6.8
2014-Nov-22 23:33N 40°39' W 074°10'4 3.2
2014-Nov-22 22:16N 40°35' W 074°13'1 0.5
2014-Nov-22 19:29N 40°36' W 074°12'5 2.5
2014-Nov-22 17:29N 40°39' W 074°07'0 0.0
2014-Nov-22 16:28N 40°39' W 074°07'2 0.8
2014-Nov-22 13:33N 40°39' W 074°10'7 7.5
2014-Nov-22 12:33N 40°35' W 074°01'8 7.7
2014-Nov-22 11:33N 40°35' W 073°51'5 4.6
2014-Nov-22 10:33N 40°37' W 073°46'1 1.0
2014-Nov-22 09:33N 40°38' W 073°45'0 0.0
2014-Nov-22 06:27N 40°38' W 073°45'0 0.0
2014-Nov-22 04:32N 40°38' W 073°45'0 0.0
2014-Nov-22 03:30N 40°38' W 073°45'0 0.0
2014-Nov-22 01:14N 40°38' W 073°45'0 0.0
2014-Nov-22 00:12N 40°38' W 073°45'0 0.0
2014-Nov-21 23:33N 40°38' W 073°45'0 0.0
2014-Nov-21 22:11N 40°38' W 073°45'0 0.0
2014-Nov-21 11:20N 40°38' W 073°45'0 0.0
2014-Nov-21 04:15N 40°38' W 073°45'0 0.0
2014-Nov-21 03:26N 40°38' W 073°45'0 0.0
2014-Nov-21 02:22N 40°38' W 073°45'0 0.0
2014-Nov-21 01:26N 40°38' W 073°45'0 0.0
2014-Nov-21 00:30N 40°38' W 073°45'0 0.0
2014-Nov-20 23:10N 40°38' W 073°45'0 0.0
2014-Nov-20 22:11N 40°38' W 073°45'0 0.0
2014-Nov-20 21:31N 40°38' W 073°45'0 0.0
2014-Nov-20 18:22N 40°38' W 073°45'0 0.0
2014-Nov-20 17:10N 40°38' W 073°45'0 0.0
2014-Nov-20 12:21N 40°38' W 073°45'0 0.0
2014-Nov-20 11:32N 40°38' W 073°45'0 0.0
2014-Nov-20 10:27N 40°38' W 073°45'0 0.0
2014-Nov-20 07:11N 40°38' W 073°45'0 0.0
2014-Nov-20 06:23N 40°38' W 073°45'0 0.0
2014-Nov-20 05:30N 40°38' W 073°45'0 0.0
2014-Nov-20 04:30N 40°38' W 073°45'0 0.0
2014-Nov-20 03:32N 40°38' W 073°45'0 0.0
2014-Nov-20 02:26N 40°38' W 073°45'0 0.0
2014-Nov-20 01:32N 40°38' W 073°45'0 0.3
2014-Nov-20 00:32N 40°38' W 073°45'4 3.8
2014-Nov-19 23:26N 40°35' W 073°50'1 0.7
2014-Nov-19 22:33N 40°35' W 073°50'5 5.0
2014-Nov-19 21:31N 40°34' W 073°57'6 6.3
2014-Nov-19 20:33N 40°37' W 074°03'6 5.9
2014-Nov-19 19:31N 40°39' W 074°11'7 1.8
2014-Nov-19 15:27N 40°32' W 074°15'1 0.1
2014-Nov-19 06:19N 40°33' W 074°15'0 0.0
2014-Nov-19 05:33N 40°33' W 074°15'0 0.0
2014-Nov-19 04:32N 40°33' W 074°15'0 0.0
2014-Nov-19 03:33N 40°33' W 074°15'1 0.8
2014-Nov-19 02:20N 40°32' W 074°15'1 1.0
2014-Nov-19 01:20N 40°33' W 074°15'2 2.4
2014-Nov-19 00:25N 40°34' W 074°13'2 1.5
2014-Nov-18 23:15N 40°36' W 074°12'5 5.7
2014-Nov-18 22:25N 40°32' W 074°15'0 0.0
2014-Nov-18 19:28N 40°32' W 074°15'0 0.0
2014-Nov-18 18:19N 40°32' W 074°15'0 0.0
2014-Nov-18 17:30N 40°32' W 074°15'0 0.0
2014-Nov-18 16:22N 40°32' W 074°15'6 3.2
2014-Nov-18 14:31N 40°37' W 074°12'6 6.8
2014-Nov-18 13:33N 40°40' W 074°04'9 9.2
2014-Nov-18 12:33N 40°47' W 073°56'17 5.3
2014-Nov-18 09:23N 40°57' W 073°40'18 8.5
2014-Nov-18 07:16N 41°05' W 073°18'7 8.4
2014-Nov-18 06:27N 41°07' W 073°09'7 8.2
2014-Nov-18 05:33N 41°10' W 073°00'7 7.0
2014-Nov-18 04:33N 41°16' W 072°55'2 1.4
2014-Nov-18 03:10N 41°18' W 072°54'3 0.3
2014-Nov-17 18:22N 41°15' W 072°55'2 1.9
2014-Nov-17 17:33N 41°14' W 072°56'0 0.0
2014-Nov-17 16:33N 41°14' W 072°56'0 0.0
2014-Nov-17 14:29N 41°14' W 072°56'0 0.0
2014-Nov-17 13:20N 41°14' W 072°56'0 0.0
2014-Nov-17 12:13N 41°14' W 072°56'0 0.1
2014-Nov-17 11:04N 41°14' W 072°56'1 1.0
2014-Nov-17 10:29N 41°13' W 072°55'7 7.3
2014-Nov-17 09:33N 41°08' W 073°01'7 7.2
2014-Nov-17 08:33N 41°05' W 073°09'8 7.5
2014-Nov-17 07:33N 41°02' W 073°19'8 7.7
2014-Nov-17 06:32N 40°59' W 073°28'11 8.0
2014-Nov-17 05:08N 40°54' W 073°42'  
Track history (hours):
 
Tides and Currents Weather Stations Pressure Air Temp Water Temp Dewpoint Dewpoint Depression Visibility Wind Speed Wind Dir Waves Ship Positions

Quenames

Owner: BOSTON MARINE TRANSPORT INC, EAST BOSTON, MA. More information available from US FCC via Universal Licensing System and Coast Guard Vessel Documentation Center.

Last reported at 2014-Nov-27 04:16 UTC. Time now 2014-Nov-27 05:39 UTC.
Position N 40°32' W 074°15'.

Length 23 m.

Type: Tug. MMSI: 367022790.

Date/timePositionNaut miles runAvg speedWind from/ knotsBaromVisibWave heightAir tempDewpointWater temp
2014-Nov-27 04:16N 40°32' W 074°15'0 0.0
2014-Nov-27 03:33N 40°32' W 074°15'1 0.8
2014-Nov-27 02:26N 40°33' W 074°15'5 0.5
2014-Nov-26 16:14N 40°37' W 074°12'1 2.1
2014-Nov-26 15:33N 40°38' W 074°12'0 0.0
2014-Nov-26 14:33N 40°38' W 074°12'0 0.0
2014-Nov-26 13:34N 40°38' W 074°12'0 0.0
2014-Nov-26 12:33N 40°38' W 074°12'0 0.2
2014-Nov-26 11:34N 40°38' W 074°12'2 1.7
2014-Nov-26 10:08N 40°36' W 074°12'2 3.9
2014-Nov-26 09:33N 40°38' W 074°12'0 0.1
2014-Nov-26 06:33N 40°38' W 074°12'6 6.1
2014-Nov-26 05:34N 40°38' W 074°04'10 7.4
2014-Nov-26 04:09N 40°35' W 073°51'5 1.8
2014-Nov-26 01:16N 40°38' W 073°45'0 0.0
2014-Nov-26 00:22N 40°38' W 073°45'0 0.0
2014-Nov-25 23:26N 40°38' W 073°45'0 0.0
2014-Nov-25 22:32N 40°38' W 073°45'0 0.0
2014-Nov-25 21:33N 40°38' W 073°45'0 0.0
2014-Nov-25 20:33N 40°38' W 073°45'0 0.0
2014-Nov-25 19:32N 40°38' W 073°45'2 2.2
2014-Nov-25 18:30N 40°36' W 073°47'5 5.1
2014-Nov-25 17:32N 40°34' W 073°53'6 6.0
2014-Nov-25 16:33N 40°34' W 074°01'7 6.8
2014-Nov-25 15:33N 40°41' W 074°01'5 4.9
2014-Nov-25 14:33N 40°45' W 073°58'4 3.6
2014-Nov-25 13:31N 40°48' W 073°54'6 5.3
2014-Nov-25 12:29N 40°49' W 073°47'6 4.8
2014-Nov-25 11:16N 40°51' W 073°40'0 0.0
2014-Nov-25 04:16N 40°51' W 073°40'3 4.3
2014-Nov-25 03:33N 40°53' W 073°43'9 7.0
2014-Nov-25 02:20N 40°48' W 073°52'6 7.7
2014-Nov-25 01:33N 40°44' W 073°58'3 3.2
2014-Nov-25 00:33N 40°47' W 073°60'9 8.5
2014-Nov-24 23:31N 40°55' W 073°55'8 0.2
2014-Nov-23 01:15N 40°47' W 073°59'6 9.3
2014-Nov-23 00:33N 40°41' W 074°02'7 6.8
2014-Nov-22 23:33N 40°39' W 074°10'4 3.2
2014-Nov-22 22:16N 40°35' W 074°13'1 0.5
2014-Nov-22 19:29N 40°36' W 074°12'5 2.5
2014-Nov-22 17:29N 40°39' W 074°07'0 0.0
2014-Nov-22 16:28N 40°39' W 074°07'2 0.8
2014-Nov-22 13:33N 40°39' W 074°10'7 7.5
2014-Nov-22 12:33N 40°35' W 074°01'8 7.7
2014-Nov-22 11:33N 40°35' W 073°51'5 4.6
2014-Nov-22 10:33N 40°37' W 073°46'1 1.0
2014-Nov-22 09:33N 40°38' W 073°45'0 0.0
2014-Nov-22 06:27N 40°38' W 073°45'0 0.0
2014-Nov-22 04:32N 40°38' W 073°45'0 0.0
2014-Nov-22 03:30N 40°38' W 073°45'0 0.0
2014-Nov-22 01:14N 40°38' W 073°45'0 0.0
2014-Nov-22 00:12N 40°38' W 073°45'0 0.0
2014-Nov-21 23:33N 40°38' W 073°45'0 0.0
2014-Nov-21 22:11N 40°38' W 073°45'0 0.0
2014-Nov-21 11:20N 40°38' W 073°45'0 0.0
2014-Nov-21 04:15N 40°38' W 073°45'0 0.0
2014-Nov-21 03:26N 40°38' W 073°45'0 0.0
2014-Nov-21 02:22N 40°38' W 073°45'0 0.0
2014-Nov-21 01:26N 40°38' W 073°45'0 0.0
2014-Nov-21 00:30N 40°38' W 073°45'0 0.0
2014-Nov-20 23:10N 40°38' W 073°45'0 0.0
2014-Nov-20 22:11N 40°38' W 073°45'0 0.0
2014-Nov-20 21:31N 40°38' W 073°45'0 0.0
2014-Nov-20 18:22N 40°38' W 073°45'0 0.0
2014-Nov-20 17:10N 40°38' W 073°45'0 0.0
2014-Nov-20 12:21N 40°38' W 073°45'0 0.0
2014-Nov-20 11:32N 40°38' W 073°45'0 0.0
2014-Nov-20 10:27N 40°38' W 073°45'0 0.0
2014-Nov-20 07:11N 40°38' W 073°45'0 0.0
2014-Nov-20 06:23N 40°38' W 073°45'0 0.0
2014-Nov-20 05:30N 40°38' W 073°45'0 0.0
2014-Nov-20 04:30N 40°38' W 073°45'0 0.0
2014-Nov-20 03:32N 40°38' W 073°45'0 0.0
2014-Nov-20 02:26N 40°38' W 073°45'0 0.0
2014-Nov-20 01:32N 40°38' W 073°45'0 0.3
2014-Nov-20 00:32N 40°38' W 073°45'4 3.8
2014-Nov-19 23:26N 40°35' W 073°50'1 0.7
2014-Nov-19 22:33N 40°35' W 073°50'5 5.0
2014-Nov-19 21:31N 40°34' W 073°57'6 6.3
2014-Nov-19 20:33N 40°37' W 074°03'6 5.9
2014-Nov-19 19:31N 40°39' W 074°11'7 1.8
2014-Nov-19 15:27N 40°32' W 074°15'1 0.1
2014-Nov-19 06:19N 40°33' W 074°15'0 0.0
2014-Nov-19 05:33N 40°33' W 074°15'0 0.0
2014-Nov-19 04:32N 40°33' W 074°15'0 0.0
2014-Nov-19 03:33N 40°33' W 074°15'1 0.8
2014-Nov-19 02:20N 40°32' W 074°15'1 1.0
2014-Nov-19 01:20N 40°33' W 074°15'2 2.4
2014-Nov-19 00:25N 40°34' W 074°13'2 1.5
2014-Nov-18 23:15N 40°36' W 074°12'5 5.7
2014-Nov-18 22:25N 40°32' W 074°15'0 0.0
2014-Nov-18 19:28N 40°32' W 074°15'0 0.0
2014-Nov-18 18:19N 40°32' W 074°15'0 0.0
2014-Nov-18 17:30N 40°32' W 074°15'0 0.0
2014-Nov-18 16:22N 40°32' W 074°15'6 3.2
2014-Nov-18 14:31N 40°37' W 074°12'6 6.8
2014-Nov-18 13:33N 40°40' W 074°04'9 9.2
2014-Nov-18 12:33N 40°47' W 073°56'17 5.3
2014-Nov-18 09:23N 40°57' W 073°40'18 8.5
2014-Nov-18 07:16N 41°05' W 073°18'7 8.4
2014-Nov-18 06:27N 41°07' W 073°09'7 8.2
2014-Nov-18 05:33N 41°10' W 073°00'7 7.0
2014-Nov-18 04:33N 41°16' W 072°55'2 1.4
2014-Nov-18 03:10N 41°18' W 072°54'3 0.3
2014-Nov-17 18:22N 41°15' W 072°55'2 1.9
2014-Nov-17 17:33N 41°14' W 072°56'0 0.0
2014-Nov-17 16:33N 41°14' W 072°56'0 0.0
2014-Nov-17 14:29N 41°14' W 072°56'0 0.0
2014-Nov-17 13:20N 41°14' W 072°56'0 0.0
2014-Nov-17 12:13N 41°14' W 072°56'0 0.1
2014-Nov-17 11:04N 41°14' W 072°56'1 1.0
2014-Nov-17 10:29N 41°13' W 072°55'7 7.3
2014-Nov-17 09:33N 41°08' W 073°01'7 7.2
2014-Nov-17 08:33N 41°05' W 073°09'8 7.5
2014-Nov-17 07:33N 41°02' W 073°19'8 7.7
2014-Nov-17 06:32N 40°59' W 073°28'11 8.0
2014-Nov-17 05:08N 40°54' W 073°42'  

Dump ship's entire track history